Time;durP1;ratioP1;P1;durP2;ratioP2;P2;SDS_P1;SDS_P2;PMS_P1;PMS_P2;Temp;Humidity;BMP_temperature;BMP_pressure;BME280_temperature;BME280_humidity;BME280_pressure;Samples;Min_cycle;Max_cycle;Signal;HPM_P1;HPM_P2
2022/06/30 00:01:37;;;;;;;15.50;14.20;;;23.50;99.90;;;;;;6277331;28;20243;-66
2022/06/30 00:04:40;;;;;;;15.17;13.73;;;23.40;99.90;;;;;;6276928;28;20236;-66
2022/06/30 00:07:44;;;;;;;16.07;14.53;;;23.40;99.90;;;;;;6276339;28;20227;-66
2022/06/30 00:10:48;;;;;;;16.13;14.70;;;23.40;99.90;;;;;;6276499;28;20232;-66
2022/06/30 00:13:52;;;;;;;16.03;14.53;;;23.40;99.90;;;;;;6276189;28;20227;-65
2022/06/30 00:16:55;;;;;;;15.63;14.33;;;23.40;99.90;;;;;;6276750;28;20235;-66
2022/06/30 00:19:58;;;;;;;15.20;13.90;;;23.40;99.90;;;;;;6276110;28;20241;-65
2022/06/30 00:23:01;;;;;;;16.20;14.60;;;23.30;99.90;;;;;;6276834;28;20235;-65
2022/06/30 00:26:06;;;;;;;14.80;13.50;;;23.30;99.90;;;;;;6276269;28;20690;-65
2022/06/30 00:29:11;;;;;;;14.97;13.67;;;23.30;99.90;;;;;;6276515;28;20244;-65
2022/06/30 00:32:14;;;;;;;15.37;14.10;;;23.20;99.90;;;;;;6276579;28;20236;-65
2022/06/30 00:35:17;;;;;;;17.17;15.23;;;23.20;99.90;;;;;;6276009;28;20637;-65
2022/06/30 00:38:20;;;;;;;16.53;15.13;;;23.10;99.90;;;;;;6275842;28;20244;-66
2022/06/30 00:41:25;;;;;;;15.63;14.43;;;23.10;99.90;;;;;;6276196;28;20228;-66
2022/06/30 00:44:28;;;;;;;16.17;14.30;;;23.10;99.90;;;;;;6267085;28;20223;-66
2022/06/30 00:47:31;;;;;;;14.90;13.70;;;23.10;99.90;;;;;;6275775;28;20526;-66
2022/06/30 00:50:35;;;;;;;15.57;14.17;;;23.10;99.90;;;;;;6275752;28;20245;-66
2022/06/30 00:53:40;;;;;;;14.37;13.27;;;23.10;99.90;;;;;;6275252;28;20238;-65
2022/06/30 00:56:47;;;;;;;15.50;14.30;;;23.10;99.90;;;;;;6275648;28;20580;-65
2022/06/30 00:59:53;;;;;;;15.63;14.37;;;23.10;99.90;;;;;;6275617;28;20247;-65
2022/06/30 01:02:58;;;;;;;15.03;13.87;;;23.10;99.90;;;;;;6276363;28;20239;-65
2022/06/30 01:06:03;;;;;;;15.23;13.83;;;23.10;99.90;;;;;;6276135;28;20234;-66
2022/06/30 01:09:07;;;;;;;14.63;13.23;;;23.10;99.90;;;;;;6278570;28;20227;-66
2022/06/30 01:15:32;;;;;;;16.33;14.90;;;23.20;99.90;;;;;;6300020;28;20231;-66
2022/06/30 01:18:36;;;;;;;15.03;13.83;;;23.20;99.90;;;;;;6299921;28;20226;-66
2022/06/30 01:21:41;;;;;;;13.80;12.70;;;23.20;99.90;;;;;;6300317;28;20206;-66
2022/06/30 01:24:44;;;;;;;14.13;13.03;;;23.30;99.90;;;;;;6300239;28;20210;-66
2022/06/30 01:27:47;;;;;;;14.93;13.70;;;23.30;99.90;;;;;;6299978;28;20223;-66
2022/06/30 01:30:50;;;;;;;14.57;13.47;;;23.30;99.90;;;;;;6299332;28;20570;-65
2022/06/30 01:33:53;;;;;;;13.90;12.90;;;23.30;99.90;;;;;;6300000;28;20322;-65
2022/06/30 01:36:59;;;;;;;14.20;12.90;;;23.20;99.90;;;;;;6299846;28;20231;-65
2022/06/30 01:40:03;;;;;;;15.00;13.20;;;23.30;99.90;;;;;;6299554;28;20715;-65
2022/06/30 01:43:11;;;;;;;15.23;13.83;;;23.40;99.90;;;;;;6300035;28;20368;-68
2022/06/30 01:46:20;;;;;;;13.33;12.23;;;23.40;99.90;;;;;;6290995;28;20231;-68
2022/06/30 01:49:23;;;;;;;14.67;13.50;;;23.40;99.90;;;;;;6299811;28;20251;-67
2022/06/30 01:52:28;;;;;;;13.87;12.27;;;23.50;99.90;;;;;;6299298;28;20223;-67
2022/06/30 01:55:31;;;;;;;13.93;12.90;;;23.40;99.90;;;;;;6299752;28;20246;-68
2022/06/30 01:58:34;;;;;;;13.13;12.00;;;23.40;99.90;;;;;;6298896;28;20256;-68
2022/06/30 02:01:37;;;;;;;13.23;12.13;;;23.30;99.90;;;;;;6299531;28;20227;-68
2022/06/30 02:04:51;;;;;;;14.17;12.83;;;23.30;99.90;;;;;;6299659;28;20219;-68
2022/06/30 02:07:55;;;;;;;13.07;11.87;;;23.20;99.90;;;;;;6299314;28;20228;-66
2022/06/30 02:10:58;;;;;;;13.03;12.00;;;23.20;99.90;;;;;;6299268;28;20226;-67
2022/06/30 02:14:02;;;;;;;12.37;11.20;;;23.10;99.90;;;;;;6299595;28;20241;-68
2022/06/30 02:17:05;;;;;;;12.57;11.57;;;23.10;99.90;;;;;;6299240;28;20231;-68
2022/06/30 02:20:10;;;;;;;13.10;11.97;;;23.10;99.90;;;;;;6299545;28;20231;-69
2022/06/30 02:23:14;;;;;;;12.50;11.40;;;23.00;99.90;;;;;;6299433;28;20223;-69
2022/06/30 02:26:18;;;;;;;12.30;11.43;;;23.00;99.90;;;;;;6299718;28;20223;-69
2022/06/30 02:29:21;;;;;;;12.37;11.20;;;23.10;99.90;;;;;;6299062;28;20566;-69
2022/06/30 02:32:24;;;;;;;12.43;11.33;;;23.10;99.90;;;;;;6303857;28;20280;-69
2022/06/30 02:35:27;;;;;;;11.83;10.70;;;23.00;99.90;;;;;;6303710;28;20249;-69
2022/06/30 02:38:32;;;;;;;12.60;11.50;;;22.90;99.90;;;;;;6303754;28;20231;-69
2022/06/30 02:41:35;;;;;;;11.63;10.70;;;22.90;99.90;;;;;;6303792;28;20234;-70
2022/06/30 02:44:38;;;;;;;13.77;11.90;;;22.90;99.90;;;;;;6303872;28;20306;-68
2022/06/30 02:47:44;;;;;;;11.80;10.87;;;23.00;99.90;;;;;;6303841;28;20247;-68
2022/06/30 02:50:48;;;;;;;11.70;10.80;;;23.00;99.90;;;;;;6303891;28;20227;-68
2022/06/30 02:53:52;;;;;;;15.23;11.37;;;23.00;99.90;;;;;;6304028;28;20227;-68
2022/06/30 02:56:55;;;;;;;12.50;11.40;;;23.10;99.90;;;;;;6303549;28;20672;-68
2022/06/30 02:59:58;;;;;;;12.97;11.83;;;23.10;99.90;;;;;;6303206;28;20235;-68
2022/06/30 03:03:02;;;;;;;12.23;11.23;;;23.00;99.90;;;;;;6306092;28;20680;-68
2022/06/30 03:06:05;;;;;;;12.50;11.20;;;23.00;99.90;;;;;;6304946;28;20573;-68
2022/06/30 03:09:09;;;;;;;12.20;11.20;;;22.90;99.90;;;;;;6303289;28;20239;-68
2022/06/30 03:12:12;;;;;;;12.47;11.27;;;23.00;99.90;;;;;;6303069;28;20246;-68
2022/06/30 03:15:15;;;;;;;11.83;10.73;;;23.00;99.90;;;;;;6303089;28;20223;-68
2022/06/30 03:18:19;;;;;;;11.70;10.77;;;22.90;99.90;;;;;;6302915;28;20587;-69
2022/06/30 03:21:22;;;;;;;11.87;10.87;;;23.00;99.90;;;;;;6302696;28;20238;-69
2022/06/30 03:24:26;;;;;;;13.23;12.17;;;23.00;99.90;;;;;;6302971;28;20254;-69
2022/06/30 03:27:29;;;;;;;11.93;10.83;;;23.10;99.90;;;;;;6302939;28;20223;-69
2022/06/30 03:30:32;;;;;;;11.43;10.63;;;23.10;99.90;;;;;;6278051;28;20568;-69
2022/06/30 03:33:37;;;;;;;11.60;10.60;;;23.10;99.90;;;;;;6301599;28;20563;-68
2022/06/30 03:36:40;;;;;;;11.90;11.00;;;23.10;99.90;;;;;;6277448;28;20592;-68
2022/06/30 03:39:44;;;;;;;11.37;10.27;;;23.00;99.90;;;;;;6277592;28;20236;-68
2022/06/30 03:42:47;;;;;;;11.30;10.30;;;23.10;99.90;;;;;;6278697;28;20668;-69
2022/06/30 03:45:50;;;;;;;10.60;9.80;;;23.00;99.90;;;;;;6278090;28;20242;-69
2022/06/30 03:48:53;;;;;;;12.80;11.50;;;23.10;99.90;;;;;;6277490;28;20243;-68
2022/06/30 03:51:56;;;;;;;11.47;10.67;;;23.00;99.90;;;;;;6277202;28;20224;-68
2022/06/30 03:55:01;;;;;;;11.27;10.37;;;23.00;99.90;;;;;;6276751;28;20669;-68
2022/06/30 03:58:04;;;;;;;11.43;10.33;;;23.00;99.90;;;;;;6276733;28;20559;-69
2022/06/30 04:01:07;;;;;;;11.63;10.70;;;22.90;99.90;;;;;;6276875;28;20677;-69
2022/06/30 04:04:10;;;;;;;11.00;10.00;;;22.90;99.90;;;;;;6277468;28;20228;-69
2022/06/30 04:07:13;;;;;;;11.57;10.67;;;22.90;99.90;;;;;;6278019;28;20819;-69
2022/06/30 04:10:18;;;;;;;10.50;9.60;;;22.90;99.90;;;;;;6279322;28;20236;-69
2022/06/30 04:13:21;;;;;;;10.37;9.47;;;22.90;99.90;;;;;;6278281;28;20533;-68
2022/06/30 04:16:24;;;;;;;11.23;10.30;;;22.90;99.90;;;;;;6276563;28;20236;-68
2022/06/30 04:19:27;;;;;;;11.10;10.27;;;22.80;99.90;;;;;;6276860;28;20246;-69
2022/06/30 04:22:31;;;;;;;10.73;9.87;;;22.90;99.90;;;;;;6277251;28;20289;-69
2022/06/30 04:25:35;;;;;;;10.53;9.70;;;22.90;99.90;;;;;;6277109;28;20227;-70
2022/06/30 04:28:38;;;;;;;10.40;9.50;;;22.90;99.90;;;;;;6276560;28;20247;-69
2022/06/30 04:35:02;;;;;;;11.03;10.00;;;22.90;99.90;;;;;;6276266;28;20237;-69
2022/06/30 04:38:06;;;;;;;10.70;9.60;;;22.90;99.90;;;;;;6276055;28;20707;-69
2022/06/30 04:41:25;;;;;;;11.23;10.20;;;23.00;99.90;;;;;;6276130;28;20238;-70
2022/06/30 04:44:29;;;;;;;10.27;9.47;;;22.90;99.90;;;;;;6275849;28;20231;-69
2022/06/30 04:47:32;;;;;;;9.50;8.60;;;22.90;99.90;;;;;;6275912;28;20232;-70
2022/06/30 04:50:35;;;;;;;10.10;9.23;;;22.80;99.90;;;;;;6275697;28;20549;-69
2022/06/30 04:53:40;;;;;;;9.50;8.80;;;22.80;99.90;;;;;;6275002;28;20310;-69
2022/06/30 04:56:44;;;;;;;9.80;8.90;;;22.70;99.90;;;;;;6250938;28;20243;-67
2022/06/30 04:59:47;;;;;;;10.10;9.20;;;22.70;99.90;;;;;;6284277;28;20238;-66
2022/06/30 05:02:51;;;;;;;10.40;9.40;;;22.70;99.90;;;;;;6281257;28;20236;-66
2022/06/30 05:05:54;;;;;;;10.10;9.10;;;22.80;99.90;;;;;;6275742;28;20224;-66
2022/06/30 05:08:57;;;;;;;10.60;9.60;;;22.90;99.90;;;;;;6275706;28;20231;-65
2022/06/30 05:12:01;;;;;;;10.30;9.50;;;22.90;99.90;;;;;;6275314;28;20712;-66
2022/06/30 05:15:06;;;;;;;10.80;10.00;;;23.10;99.90;;;;;;6275466;28;20235;-66
2022/06/30 05:18:09;;;;;;;9.90;8.90;;;23.20;99.90;;;;;;6274931;28;20243;-65
2022/06/30 05:21:12;;;;;;;10.20;9.20;;;23.20;99.90;;;;;;6274302;28;20223;-66
2022/06/30 05:27:37;;;;;;;9.33;8.63;;;23.40;99.90;;;;;;6299677;28;20222;-66
2022/06/30 05:30:42;;;;;;;9.37;8.67;;;23.60;99.90;;;;;;6299913;28;20223;-65
2022/06/30 05:33:46;;;;;;;9.87;9.07;;;23.70;99.90;;;;;;6300344;28;20214;-66
2022/06/30 05:36:49;;;;;;;11.00;7.60;;;23.70;99.90;;;;;;6299815;28;20219;-66
2022/06/30 05:39:52;;;;;;;9.80;8.90;;;24.00;99.90;;;;;;6299393;28;20255;-66
2022/06/30 05:42:57;;;;;;;10.00;9.00;;;24.20;99.90;;;;;;6300525;28;20230;-65
2022/06/30 05:46:01;;;;;;;8.73;7.97;;;24.40;99.90;;;;;;6300187;28;20301;-65
2022/06/30 05:49:06;;;;;;;9.90;8.10;;;24.60;99.90;;;;;;6300400;28;20315;-65
2022/06/30 05:52:09;;;;;;;8.80;8.00;;;25.00;99.90;;;;;;6299925;28;20237;-65
2022/06/30 05:55:12;;;;;;;8.53;7.40;;;25.10;99.90;;;;;;6299978;28;20234;-65
2022/06/30 05:58:18;;;;;;;8.93;8.13;;;25.30;99.90;;;;;;6299160;28;20230;-67
2022/06/30 06:01:21;;;;;;;9.10;8.20;;;25.50;99.90;;;;;;6294469;28;20230;-67
2022/06/30 06:04:25;;;;;;;9.00;8.30;;;25.70;99.90;;;;;;6300865;28;20232;-67
2022/06/30 06:07:28;;;;;;;8.93;8.00;;;26.00;99.90;;;;;;6304599;28;20240;-66
2022/06/30 06:10:31;;;;;;;8.40;7.67;;;26.30;99.90;;;;;;6304701;28;20537;-66
2022/06/30 06:13:38;;;;;;;8.53;7.90;;;26.60;99.90;;;;;;6305002;28;20698;-66
2022/06/30 06:16:41;;;;;;;8.77;8.17;;;27.00;99.90;;;;;;6304522;28;20223;-67
2022/06/30 06:19:44;;;;;;;8.40;7.80;;;27.30;99.90;;;;;;6304306;28;20231;-67
2022/06/30 06:22:48;;;;;;;8.13;7.33;;;27.80;99.90;;;;;;6303872;28;20710;-67
2022/06/30 06:25:51;;;;;;;8.57;7.83;;;28.00;99.10;;;;;;6304100;28;20249;-67
2022/06/30 06:29:08;;;;;;;8.30;7.53;;;28.40;98.30;;;;;;6304168;28;20226;-66
2022/06/30 06:32:12;;;;;;;9.73;8.00;;;28.80;97.50;;;;;;6304344;28;20309;-68
2022/06/30 06:35:15;;;;;;;7.23;6.57;;;29.40;96.60;;;;;;6304073;28;20545;-67
2022/06/30 06:38:19;;;;;;;8.03;7.17;;;30.10;95.40;;;;;;6303905;28;20551;-67
2022/06/30 06:41:22;;;;;;;6.50;6.00;;;30.40;94.10;;;;;;6303912;28;20223;-67
2022/06/30 06:44:27;;;;;;;8.35;7.75;;;30.50;93.80;;;;;;6303809;28;20570;-66
2022/06/30 06:47:31;;;;;;;8.75;7.32;;;30.80;93.00;;;;;;6303918;28;20222;-66
2022/06/30 06:50:34;;;;;;;7.25;6.50;;;31.30;92.10;;;;;;6302953;28;20234;-66
2022/06/30 06:53:38;;;;;;;7.35;6.75;;;31.90;90.70;;;;;;6303380;28;20233;-66
2022/06/30 06:56:41;;;;;;;6.97;6.32;;;32.60;89.20;;;;;;6303300;28;20552;-66
2022/06/30 06:59:46;;;;;;;7.82;7.13;;;32.90;85.40;;;;;;6303152;28;20236;-66
2022/06/30 07:02:49;;;;;;;6.63;6.03;;;33.10;83.90;;;;;;6303402;28;20234;-66
2022/06/30 07:05:52;;;;;;;7.90;7.20;;;33.00;82.90;;;;;;6303419;28;20309;-68
2022/06/30 07:08:55;;;;;;;7.25;6.75;;;33.10;82.60;;;;;;6299269;28;20543;-68
2022/06/30 07:11:58;;;;;;;7.38;6.75;;;33.60;80.10;;;;;;6303380;28;20226;-68
2022/06/30 07:15:04;;;;;;;6.90;6.40;;;34.10;77.70;;;;;;6304807;28;20719;-64
2022/06/30 07:18:07;;;;;;;9.27;6.90;;;34.70;74.10;;;;;;6302340;28;20687;-64
2022/06/30 07:21:10;;;;;;;6.38;5.80;;;34.40;71.60;;;;;;6301818;28;20227;-63
2022/06/30 07:24:13;;;;;;;7.18;6.68;;;34.40;73.00;;;;;;6301738;28;20268;-64
2022/06/30 07:27:17;;;;;;;7.32;6.30;;;35.10;69.70;;;;;;6301495;28;20223;-63
2022/06/30 07:30:21;;;;;;;6.78;6.20;;;35.90;67.40;;;;;;6301170;28;20246;-64
2022/06/30 07:33:26;;;;;;;6.82;6.32;;;36.60;64.60;;;;;;6302112;28;20230;-64
2022/06/30 07:36:29;;;;;;;6.22;5.82;;;37.30;62.00;;;;;;6302754;28;20227;-64
2022/06/30 07:39:32;;;;;;;7.45;6.75;;;37.70;60.30;;;;;;6302390;28;20253;-64
2022/06/30 07:42:36;;;;;;;6.40;5.78;;;37.90;58.50;;;;;;6302525;28;20198;-64
2022/06/30 07:45:41;;;;;;;6.97;6.30;;;38.00;58.10;;;;;;6303124;28;20202;-63
2022/06/30 07:48:44;;;;;;;6.90;6.40;;;38.00;57.60;;;;;;6304098;28;20219;-63
2022/06/30 07:51:48;;;;;;;6.72;6.18;;;38.10;56.50;;;;;;6304807;28;20203;-63
2022/06/30 07:54:51;;;;;;;8.35;7.65;;;38.20;56.40;;;;;;6304899;28;20206;-63
2022/06/30 07:57:54;;;;;;;8.13;7.43;;;38.00;55.80;;;;;;6302985;28;20226;-64
2022/06/30 08:00:59;;;;;;;8.02;7.20;;;37.60;56.30;;;;;;6303610;28;20222;-64
2022/06/30 08:04:02;;;;;;;8.90;8.05;;;37.20;57.00;;;;;;6302689;28;20315;-64
2022/06/30 08:07:06;;;;;;;7.53;6.93;;;36.30;57.60;;;;;;6301722;28;20309;-63
2022/06/30 08:10:10;;;;;;;8.55;7.72;;;35.90;58.60;;;;;;6293701;28;20248;-63
2022/06/30 08:13:13;;;;;;;7.90;7.30;;;35.50;59.20;;;;;;6301921;28;20712;-63
2022/06/30 08:16:18;;;;;;;8.13;7.43;;;35.30;60.40;;;;;;6301511;28;20234;-64
2022/06/30 08:19:21;;;;;;;8.75;8.00;;;34.80;61.30;;;;;;6301684;28;20226;-63
2022/06/30 08:22:24;;;;;;;9.88;7.57;;;34.60;61.90;;;;;;6301369;28;20559;-64
2022/06/30 08:25:28;;;;;;;7.75;7.13;;;34.50;61.80;;;;;;6301632;28;20227;-65
2022/06/30 08:28:33;;;;;;;8.02;7.43;;;34.30;63.60;;;;;;6300480;28;20325;-64
2022/06/30 08:31:38;;;;;;;9.00;8.10;;;34.20;62.20;;;;;;6301272;28;20313;-64
2022/06/30 08:34:41;;;;;;;8.05;7.45;;;34.00;60.20;;;;;;6300861;28;20237;-64
2022/06/30 08:37:44;;;;;;;8.40;6.43;;;33.80;60.70;;;;;;6300962;28;20227;-65
2022/06/30 08:44:12;;;;;;;8.75;6.90;;;34.10;60.60;;;;;;6300767;28;20548;-64
2022/06/30 08:47:16;;;;;;;8.75;7.95;;;34.30;59.50;;;;;;6301036;28;20222;-64
2022/06/30 08:50:20;;;;;;;7.72;6.95;;;34.50;59.50;;;;;;6300358;28;20231;-64
2022/06/30 08:53:25;;;;;;;7.65;7.07;;;34.20;59.00;;;;;;6300569;28;20234;-64
2022/06/30 08:56:31;;;;;;;7.55;7.05;;;34.20;58.90;;;;;;6300334;28;20248;-63
2022/06/30 08:59:35;;;;;;;7.95;7.35;;;33.80;59.20;;;;;;6299918;28;20226;-63
2022/06/30 09:02:40;;;;;;;7.88;6.95;;;33.60;59.60;;;;;;6300392;28;20237;-63
2022/06/30 09:05:46;;;;;;;9.07;7.70;;;34.00;59.60;;;;;;6300252;28;20569;-63
2022/06/30 09:08:49;;;;;;;8.43;7.72;;;34.20;58.10;;;;;;6299354;28;20233;-65
2022/06/30 09:11:54;;;;;;;8.27;7.57;;;34.20;57.60;;;;;;6280078;28;20517;-65
2022/06/30 09:14:58;;;;;;;7.82;7.13;;;34.20;57.90;;;;;;6270579;28;20660;-65
2022/06/30 09:18:02;;;;;;;11.82;10.75;;;33.80;58.10;;;;;;6274806;28;20546;-66
2022/06/30 09:21:15;;;;;;;7.93;7.13;;;34.00;57.60;;;;;;6273570;28;20227;-66
2022/06/30 09:24:23;;;;;;;9.18;8.38;;;34.00;57.70;;;;;;6274901;28;20230;-64
2022/06/30 09:27:29;;;;;;;8.60;8.00;;;33.60;58.90;;;;;;6274446;28;20288;-66
2022/06/30 09:30:32;;;;;;;8.10;7.30;;;33.30;60.10;;;;;;6274596;28;20552;-67
2022/06/30 09:33:39;;;;;;;8.63;7.65;;;33.40;60.10;;;;;;6274309;28;20223;-66
2022/06/30 09:36:43;;;;;;;8.23;7.53;;;33.50;60.00;;;;;;6274555;28;20234;-67
2022/06/30 09:39:47;;;;;;;8.52;7.82;;;33.70;60.20;;;;;;6276181;28;20550;-66
2022/06/30 09:42:51;;;;;;;9.25;7.70;;;34.00;59.10;;;;;;6279410;28;20220;-66
2022/06/30 09:45:57;;;;;;;8.70;8.00;;;34.00;58.50;;;;;;6253044;28;20250;-66
2022/06/30 09:49:02;;;;;;;8.43;7.72;;;33.70;59.70;;;;;;6249851;28;20246;-66
2022/06/30 09:52:17;;;;;;;9.02;8.43;;;33.70;60.20;;;;;;6250283;28;20242;-66
2022/06/30 09:55:21;;;;;;;8.50;7.90;;;34.00;59.30;;;;;;6256661;28;20242;-66
2022/06/30 09:58:43;;;;;;;8.63;8.02;;;33.40;60.00;;;;;;6273766;28;20231;-67
2022/06/30 10:01:54;;;;;;;8.32;7.68;;;33.70;60.40;;;;;;6274426;28;20238;-65
2022/06/30 10:04:59;;;;;;;8.73;7.93;;;33.80;59.50;;;;;;6273953;28;20223;-70
2022/06/30 10:08:03;;;;;;;8.38;7.53;;;34.10;57.90;;;;;;6274517;28;20223;-66
2022/06/30 10:11:07;;;;;;;8.90;8.13;;;34.30;58.60;;;;;;6274404;28;20222;-66
2022/06/30 10:14:12;;;;;;;8.60;7.80;;;34.60;57.80;;;;;;6274642;28;20684;-65
2022/06/30 10:17:16;;;;;;;8.98;7.90;;;34.70;57.10;;;;;;6275933;28;20238;-66
2022/06/30 10:20:21;;;;;;;9.10;8.30;;;34.70;56.30;;;;;;6274882;28;20688;-66
2022/06/30 10:23:25;;;;;;;9.35;7.82;;;34.90;56.00;;;;;;6274551;28;20344;-67
2022/06/30 10:29:52;;;;;;;8.68;7.93;;;35.40;54.70;;;;;;6273655;28;20241;-67
2022/06/30 10:33:01;;;;;;;8.98;8.27;;;35.80;53.70;;;;;;6274013;28;20234;-66
2022/06/30 10:36:13;;;;;;;8.75;8.05;;;35.90;53.50;;;;;;6273966;28;20223;-66
2022/06/30 10:39:23;;;;;;;8.35;7.47;;;36.00;52.50;;;;;;6273940;28;20238;-65
2022/06/30 10:42:44;;;;;;;9.07;8.23;;;35.90;53.30;;;;;;6273623;28;20231;-66
2022/06/30 10:46:02;;;;;;;8.48;7.93;;;35.50;54.30;;;;;;6274052;28;20218;-67
2022/06/30 10:49:09;;;;;;;9.73;8.98;;;35.40;54.30;;;;;;6273634;28;20227;-66
2022/06/30 10:52:25;;;;;;;9.30;8.57;;;35.60;54.00;;;;;;6276471;28;20233;-65
2022/06/30 10:55:28;;;;;;;9.18;8.55;;;35.90;52.90;;;;;;6278391;28;20238;-67
2022/06/30 10:58:31;;;;;;;9.07;8.25;;;35.70;53.00;;;;;;6278058;28;20542;-65
2022/06/30 11:01:34;;;;;;;8.55;7.95;;;35.60;53.90;;;;;;6278447;28;20258;-65
2022/06/30 11:04:39;;;;;;;8.27;7.40;;;35.50;54.30;;;;;;6277857;28;20226;-64
2022/06/30 11:07:44;;;;;;;10.13;9.20;;;35.30;54.10;;;;;;6278124;28;20511;-65
2022/06/30 11:10:47;;;;;;;10.07;9.15;;;35.00;54.50;;;;;;6278370;28;20373;-65
2022/06/30 11:13:52;;;;;;;10.52;9.70;;;34.80;54.90;;;;;;6277691;28;20235;-65
2022/06/30 11:16:55;;;;;;;9.48;8.75;;;34.60;55.30;;;;;;6277658;28;20241;-65
2022/06/30 11:20:01;;;;;;;9.20;8.35;;;34.60;55.00;;;;;;6278015;28;20231;-65
2022/06/30 11:23:07;;;;;;;9.77;8.77;;;34.80;54.90;;;;;;6272879;28;20651;-65
2022/06/30 11:29:32;;;;;;;11.35;9.52;;;35.00;54.50;;;;;;6277160;28;20224;-65
2022/06/30 11:32:36;;;;;;;9.85;9.10;;;35.00;54.40;;;;;;6277501;28;20360;-65
2022/06/30 11:35:40;;;;;;;9.98;9.07;;;35.00;53.70;;;;;;6277323;28;20398;-66
2022/06/30 11:38:44;;;;;;;9.52;8.88;;;35.30;53.70;;;;;;6277161;28;20246;-66
2022/06/30 11:41:59;;;;;;;10.27;9.45;;;35.50;54.00;;;;;;6276902;28;20314;-65
2022/06/30 11:45:02;;;;;;;9.50;8.90;;;35.40;53.00;;;;;;6277760;28;20238;-65
2022/06/30 11:48:06;;;;;;;9.50;8.85;;;35.20;53.50;;;;;;6277382;28;20238;-66
2022/06/30 11:51:11;;;;;;;10.20;9.32;;;35.30;53.60;;;;;;6277200;28;20233;-66
2022/06/30 11:54:17;;;;;;;9.90;9.13;;;35.40;53.30;;;;;;6278272;28;20231;-65
2022/06/30 11:57:22;;;;;;;10.23;9.35;;;35.40;53.70;;;;;;6281433;28;20231;-66
2022/06/30 12:00:30;;;;;;;10.82;9.77;;;35.10;53.80;;;;;;6276817;28;20683;-66
2022/06/30 12:03:37;;;;;;;9.60;8.65;;;35.00;53.30;;;;;;6276139;28;20230;-67
2022/06/30 12:06:40;;;;;;;9.35;8.65;;;34.70;54.20;;;;;;6276493;28;20208;-65
2022/06/30 12:09:46;;;;;;;10.23;9.38;;;34.50;54.50;;;;;;6276678;28;20223;-65
2022/06/30 12:12:49;;;;;;;9.80;8.93;;;34.30;55.20;;;;;;6277641;28;20207;-65
2022/06/30 12:15:53;;;;;;;10.32;9.43;;;34.20;55.50;;;;;;6276642;28;20207;-66
2022/06/30 12:18:57;;;;;;;10.95;9.93;;;34.10;55.80;;;;;;6275586;28;20235;-65
2022/06/30 12:22:01;;;;;;;9.65;8.95;;;34.00;56.70;;;;;;6276847;28;20223;-65
2022/06/30 12:25:08;;;;;;;10.25;9.27;;;33.90;55.80;;;;;;6276314;28;20232;-66
2022/06/30 12:28:11;;;;;;;10.40;9.43;;;33.90;55.60;;;;;;6276310;28;20235;-66
2022/06/30 12:31:23;;;;;;;10.50;9.70;;;33.80;56.10;;;;;;6275891;28;20310;-66
2022/06/30 12:34:27;;;;;;;9.85;8.95;;;33.70;55.70;;;;;;6276447;28;20288;-67
2022/06/30 12:37:32;;;;;;;11.35;10.30;;;33.80;56.70;;;;;;6275612;28;20554;-67
2022/06/30 12:40:40;;;;;;;11.18;10.27;;;33.80;56.30;;;;;;6275753;28;20241;-66
2022/06/30 12:43:50;;;;;;;11.75;10.85;;;33.70;56.50;;;;;;6276252;28;20759;-66
2022/06/30 12:47:04;;;;;;;10.98;10.18;;;33.40;57.20;;;;;;6276625;28;20227;-66
2022/06/30 12:50:21;;;;;;;10.70;9.63;;;33.40;57.50;;;;;;6275447;28;20238;-66
2022/06/30 12:53:25;;;;;;;12.13;11.02;;;33.50;57.80;;;;;;6275493;28;20227;-66
2022/06/30 12:56:33;;;;;;;11.40;10.27;;;33.50;57.50;;;;;;6275307;28;20687;-65
2022/06/30 12:59:45;;;;;;;11.80;9.80;;;33.40;57.90;;;;;;6274990;28;20653;-65
2022/06/30 13:02:50;;;;;;;11.80;10.80;;;33.50;57.30;;;;;;6275164;28;20232;-65
2022/06/30 13:05:53;;;;;;;11.23;10.32;;;33.40;57.50;;;;;;6275203;28;20337;-65
2022/06/30 13:08:56;;;;;;;11.70;10.82;;;33.40;57.20;;;;;;6274787;28;20242;-65
2022/06/30 13:12:02;;;;;;;11.40;10.57;;;33.50;57.40;;;;;;6274847;28;20233;-65
2022/06/30 13:15:06;;;;;;;14.23;10.90;;;33.50;58.30;;;;;;6275759;28;20231;-66
2022/06/30 13:18:10;;;;;;;10.45;9.55;;;33.40;58.70;;;;;;6277232;28;20233;-66
2022/06/30 13:21:14;;;;;;;11.40;10.40;;;33.40;59.00;;;;;;6276487;28;20230;-65
2022/06/30 13:24:19;;;;;;;12.63;11.55;;;33.30;59.60;;;;;;6274934;28;20227;-65
2022/06/30 13:27:24;;;;;;;13.48;10.40;;;33.40;59.50;;;;;;6274657;28;20679;-66
2022/06/30 13:30:27;;;;;;;11.30;10.15;;;33.20;59.40;;;;;;6274294;28;20223;-66
2022/06/30 13:33:33;;;;;;;12.57;11.65;;;33.10;59.00;;;;;;6265327;28;20234;-65
2022/06/30 13:36:37;;;;;;;12.60;11.60;;;33.10;60.10;;;;;;6274242;28;20633;-66
2022/06/30 13:39:40;;;;;;;12.85;11.55;;;33.00;58.90;;;;;;6274524;28;20235;-65
2022/06/30 13:42:45;;;;;;;12.02;11.10;;;32.90;59.70;;;;;;6274652;28;20207;-65
2022/06/30 13:45:48;;;;;;;11.63;10.75;;;33.00;59.10;;;;;;6274453;28;20215;-65
2022/06/30 13:48:51;;;;;;;12.70;11.70;;;32.90;58.80;;;;;;6274153;28;20317;-65
2022/06/30 13:51:54;;;;;;;13.38;11.93;;;32.90;59.00;;;;;;6274666;28;20222;-66
2022/06/30 13:54:57;;;;;;;12.05;11.15;;;32.70;59.80;;;;;;6274172;28;20272;-65
2022/06/30 13:58:02;;;;;;;13.38;12.38;;;32.60;59.40;;;;;;6275302;28;20223;-64
2022/06/30 14:01:06;;;;;;;13.60;11.80;;;32.60;59.80;;;;;;6275371;28;20231;-65
2022/06/30 14:04:09;;;;;;;12.23;11.35;;;32.60;59.60;;;;;;6274471;28;20238;-64
2022/06/30 14:07:12;;;;;;;12.82;11.60;;;32.80;59.60;;;;;;6274154;28;20235;-65
2022/06/30 14:10:15;;;;;;;13.73;12.73;;;32.80;59.80;;;;;;6274318;28;20227;-65
2022/06/30 14:13:20;;;;;;;12.88;11.88;;;32.90;60.10;;;;;;6273980;28;20222;-64
2022/06/30 14:16:24;;;;;;;13.07;12.07;;;32.90;59.70;;;;;;6273972;28;20687;-65
2022/06/30 14:19:27;;;;;;;12.70;11.65;;;32.90;59.90;;;;;;6273693;28;20675;-64
2022/06/30 14:22:30;;;;;;;12.73;11.70;;;32.90;60.00;;;;;;6273969;28;20570;-63
2022/06/30 14:25:35;;;;;;;14.38;13.18;;;32.90;60.40;;;;;;6275426;28;20222;-64
2022/06/30 14:28:39;;;;;;;13.07;11.80;;;32.90;60.60;;;;;;6278400;28;20235;-66
2022/06/30 14:31:43;;;;;;;13.77;12.60;;;32.70;60.40;;;;;;6279139;28;20227;-65
2022/06/30 14:34:46;;;;;;;13.35;12.25;;;32.50;61.10;;;;;;6274130;28;20702;-64
2022/06/30 14:37:49;;;;;;;14.25;12.95;;;32.70;60.20;;;;;;6278520;28;20603;-66
2022/06/30 14:40:52;;;;;;;13.32;12.38;;;32.60;61.10;;;;;;6278139;28;20249;-64
2022/06/30 14:43:57;;;;;;;13.55;12.45;;;32.60;61.90;;;;;;6278057;28;20550;-64
2022/06/30 14:47:00;;;;;;;13.40;12.15;;;32.50;61.90;;;;;;6278427;28;20227;-64
2022/06/30 14:50:05;;;;;;;13.90;12.80;;;32.40;61.70;;;;;;6278180;28;20369;-63
2022/06/30 14:53:08;;;;;;;12.88;11.98;;;32.50;61.90;;;;;;6278221;28;20227;-65
2022/06/30 14:56:11;;;;;;;13.13;11.98;;;32.40;62.60;;;;;;6278406;28;20227;-65
2022/06/30 14:59:16;;;;;;;14.70;13.25;;;32.50;62.20;;;;;;6277765;28;20234;-65
2022/06/30 15:02:19;;;;;;;13.05;12.15;;;32.40;63.10;;;;;;6278315;28;20231;-65
2022/06/30 15:05:26;;;;;;;13.82;12.68;;;32.40;63.30;;;;;;6277769;28;20700;-64
2022/06/30 15:08:30;;;;;;;13.90;12.70;;;32.20;62.60;;;;;;6277963;28;20231;-64
2022/06/30 15:11:33;;;;;;;14.00;12.90;;;32.10;62.90;;;;;;6277852;28;20223;-63
2022/06/30 15:14:38;;;;;;;13.93;12.63;;;32.10;63.00;;;;;;6277868;28;20223;-63
2022/06/30 15:17:43;;;;;;;13.38;12.30;;;32.10;62.20;;;;;;6277046;28;20357;-63
2022/06/30 15:24:04;;;;;;;12.68;11.68;;;32.10;62.40;;;;;;6276676;28;20553;-64
2022/06/30 15:24:09;;;;;;;13.07;12.15;;;32.20;62.70;;;;;;6276218;28;20223;-64
2022/06/30 15:27:12;;;;;;;13.20;12.10;;;32.20;62.60;;;;;;6275820;28;20231;-63
2022/06/30 15:30:17;;;;;;;13.43;12.38;;;32.30;62.10;;;;;;6275800;28;20227;-64
2022/06/30 15:33:20;;;;;;;14.05;12.85;;;32.30;62.30;;;;;;6275493;28;20235;-63
2022/06/30 15:36:24;;;;;;;13.68;12.40;;;32.20;62.00;;;;;;6276994;28;20235;-64
2022/06/30 15:39:34;;;;;;;13.85;12.68;;;32.10;63.10;;;;;;6266376;28;20259;-64
2022/06/30 15:42:37;;;;;;;12.90;11.88;;;32.20;63.30;;;;;;6276610;28;20231;-64
2022/06/30 15:45:44;;;;;;;13.90;12.63;;;32.30;63.00;;;;;;6276997;28;20207;-64
2022/06/30 15:48:47;;;;;;;13.73;12.38;;;32.20;62.10;;;;;;6277187;28;20518;-65
2022/06/30 15:51:50;;;;;;;13.50;12.23;;;32.20;62.10;;;;;;6276588;28;20543;-65
2022/06/30 15:54:54;;;;;;;13.40;12.50;;;32.30;61.20;;;;;;6275172;28;20203;-65
2022/06/30 15:57:57;;;;;;;14.52;12.95;;;32.30;61.10;;;;;;6276199;28;20261;-65
2022/06/30 16:01:01;;;;;;;13.00;11.80;;;32.40;61.80;;;;;;6276721;28;20227;-64
2022/06/30 16:04:05;;;;;;;14.57;13.23;;;32.40;62.70;;;;;;6276468;28;20230;-63
2022/06/30 16:07:08;;;;;;;13.07;11.88;;;32.50;61.90;;;;;;6275747;28;20341;-64